Time;durP1;ratioP1;P1;durP2;ratioP2;P2;SDS_P1;SDS_P2;PMS_P1;PMS_P2;Temp;Humidity;BMP_temperature;BMP_pressure;BME280_temperature;BME280_humidity;BME280_pressure;Samples;Min_cycle;Max_cycle;Signal;HPM_P1;HPM_P2
2024/01/22 00:05:24;;;;;;;0.00;0.00;;;;;;;1.98;67.47;101300.03;15820285;28;20125;-49
2024/01/22 00:12:59;;;;;;;0.00;0.00;;;;;;;1.85;68.38;101292.38;15783870;28;20119;-49
2024/01/22 00:20:32;;;;;;;0.00;0.00;;;;;;;1.81;68.95;101279.56;15801314;28;20047;-48
2024/01/22 00:28:07;;;;;;;;;;;;;;;1.97;69.05;101256.00;15808431;28;20043;-50
2024/01/22 00:35:40;;;;;;;0.10;0.10;;;;;;;2.02;69.35;101229.94;15791633;28;19920;-51
2024/01/22 00:43:15;;;;;;;4.90;1.30;;;;;;;2.16;69.34;101207.47;15839946;28;20040;-52
2024/01/22 00:50:49;;;;;;;0.22;0.22;;;;;;;2.25;69.10;101211.91;15857725;28;20039;-49
2024/01/22 00:58:23;;;;;;;;;;;;;;;2.50;68.58;101192.69;15864851;28;20050;-56
2024/01/22 01:05:57;;;;;;;0.00;0.00;;;;;;;2.60;68.41;101163.50;15814105;28;19930;-52
2024/01/22 01:13:32;;;;;;;0.10;0.10;;;;;;;2.50;68.34;101179.44;15800455;28;20054;-53
2024/01/22 01:21:05;;;;;;;0.30;0.30;;;;;;;2.64;67.91;101158.75;15798807;28;20032;-54
2024/01/22 01:28:41;;;;;;;0.10;0.10;;;;;;;2.78;67.82;101169.66;15825415;28;20047;-51
2024/01/22 01:36:14;;;;;;;0.10;0.10;;;;;;;2.91;67.47;101150.75;15864840;28;20105;-52
2024/01/22 01:43:50;;;;;;;0.00;0.00;;;;;;;3.03;67.21;101141.59;15874628;28;20048;-55
2024/01/22 01:51:24;;;;;;;0.60;0.60;;;;;;;2.89;67.56;101120.91;15813640;28;20397;-53
2024/01/22 01:59:00;;;;;;;0.00;0.00;;;;;;;2.75;68.67;101100.22;15792199;28;20051;-54
2024/01/22 02:06:33;;;;;;;3.63;0.52;;;;;;;2.76;69.01;101056.84;15834571;28;20101;-53
2024/01/22 02:14:09;;;;;;;0.20;0.20;;;;;;;2.95;69.00;101032.81;15808980;28;20044;-53
2024/01/22 02:21:44;;;;;;;1.17;0.20;;;;;;;3.16;69.15;101031.63;15807707;28;20480;-53
2024/01/22 02:29:22;;;;;;;0.00;0.00;;;;;;;3.12;69.89;101011.69;15807361;28;20059;-51
2024/01/22 02:36:56;;;;;;;0.00;0.00;;;;;;;3.44;69.16;101001.31;15805192;28;20035;-53
2024/01/22 02:44:35;;;;;;;0.03;0.03;;;;;;;3.45;70.02;100978.25;15866329;28;20094;-53
2024/01/22 02:52:09;;;;;;;0.00;0.00;;;;;;;3.44;70.27;100960.66;15788386;28;20090;-53
2024/01/22 02:59:44;;;;;;;0.05;0.05;;;;;;;3.86;69.51;100965.16;15771154;28;20036;-55
2024/01/22 03:07:17;;;;;;;0.00;0.00;;;;;;;3.86;69.62;100952.72;15838963;28;20036;-53
2024/01/22 03:14:52;;;;;;;0.22;0.22;;;;;;;3.91;69.78;100952.22;15849716;28;20120;-52
2024/01/22 03:22:26;;;;;;;0.98;0.55;;;;;;;4.09;69.32;100950.28;15866864;28;20541;-56
2024/01/22 03:30:03;;;;;;;0.10;0.10;;;;;;;3.83;70.38;100918.53;15848819;28;20043;-50
2024/01/22 03:37:41;;;;;;;0.00;0.00;;;;;;;4.27;69.10;100916.44;15868560;28;20035;-51
2024/01/22 03:45:16;;;;;;;0.35;0.35;;;;;;;4.25;70.07;100896.38;15839731;28;20040;-48
2024/01/22 03:52:56;;;;;;;0.10;0.10;;;;;;;4.35;69.92;100875.75;15785785;28;20028;-54
2024/01/22 04:00:33;;;;;;;0.13;0.13;;;;;;;4.40;70.40;100885.91;15803999;28;20574;-52
2024/01/22 04:08:07;;;;;;;0.00;0.00;;;;;;;4.40;70.87;100830.09;15801722;28;20569;-50
2024/01/22 04:15:44;;;;;;;0.00;0.00;;;;;;;4.24;71.43;100809.66;15801007;28;20039;-53
2024/01/22 04:23:19;;;;;;;0.00;0.00;;;;;;;4.46;71.03;100801.00;15859464;28;20031;-51
2024/01/22 04:30:55;;;;;;;0.00;0.00;;;;;;;4.52;70.56;100784.41;15863274;28;20127;-51
2024/01/22 04:38:30;;;;;;;0.00;0.00;;;;;;;4.44;71.11;100767.63;15844208;28;20036;-50
2024/01/22 04:46:05;;;;;;;0.00;0.00;;;;;;;4.95;69.61;100806.19;15829666;28;20131;-51
2024/01/22 04:53:38;;;;;;;0.10;0.10;;;;;;;5.37;67.97;100803.19;15798400;28;20067;-50
2024/01/22 05:01:14;;;;;;;0.30;0.30;;;;;;;4.81;69.99;100679.28;15798794;28;20048;-49
2024/01/22 05:08:47;;;;;;;0.20;0.20;;;;;;;4.97;69.93;100654.41;15803794;28;20048;-48
2024/01/22 05:16:23;;;;;;;0.00;0.00;;;;;;;5.30;68.75;100716.22;15798449;28;20512;-52
2024/01/22 05:23:58;;;;;;;0.05;0.05;;;;;;;5.29;68.73;100659.50;15798085;28;20047;-50
2024/01/22 05:31:34;;;;;;;0.15;0.15;;;;;;;5.23;68.67;100620.31;15780623;28;20050;-50
2024/01/22 05:39:12;;;;;;;0.00;0.00;;;;;;;5.47;68.44;100645.91;15797873;28;20036;-50
2024/01/22 05:46:49;;;;;;;0.00;0.00;;;;;;;5.69;67.61;100633.56;15819374;28;20031;-51
2024/01/22 05:54:26;;;;;;;0.00;0.00;;;;;;;5.58;67.41;100570.91;15842916;28;20036;-52
2024/01/22 06:02:02;;;;;;;0.00;0.00;;;;;;;5.87;67.32;100559.47;15842443;28;20040;-49
2024/01/22 06:09:39;;;;;;;0.00;0.00;;;;;;;6.00;66.59;100566.00;15803803;28;20090;-55
2024/01/22 06:17:14;;;;;;;0.10;0.10;;;;;;;6.02;66.67;100553.34;15784281;28;20040;-52
2024/01/22 06:24:47;;;;;;;0.28;0.28;;;;;;;6.13;66.39;100563.50;15803838;28;20115;-50
2024/01/22 06:32:25;;;;;;;0.35;0.30;;;;;;;6.15;66.85;100588.13;15808072;28;20093;-49
2024/01/22 06:40:00;;;;;;;0.00;0.00;;;;;;;6.08;67.07;100572.06;15807988;28;20176;-52
2024/01/22 06:47:35;;;;;;;0.00;0.00;;;;;;;6.12;66.91;100569.88;15835795;28;20044;-51
2024/01/22 06:55:09;;;;;;;0.00;0.00;;;;;;;6.16;66.37;100551.66;15870769;28;20561;-49
2024/01/22 07:02:49;;;;;;;0.00;0.00;;;;;;;6.21;66.77;100549.28;15831369;28;20043;-49
2024/01/22 07:10:22;;;;;;;0.00;0.00;;;;;;;6.34;66.21;100528.06;15842209;28;20155;-48
2024/01/22 07:18:01;;;;;;;0.50;0.50;;;;;;;6.26;66.01;100528.22;15842965;28;20198;-50
2024/01/22 07:25:36;;;;;;;0.00;0.00;;;;;;;6.26;66.32;100549.53;15872582;28;20071;-51
2024/01/22 07:33:13;;;;;;;0.00;0.00;;;;;;;6.34;65.81;100536.94;15871584;28;20035;-50
2024/01/22 07:40:59;;;;;;;0.00;0.00;;;;;;;6.33;65.56;100499.78;15871916;28;20036;-50
2024/01/22 07:48:36;;;;;;;0.00;0.00;;;;;;;6.37;65.56;100490.41;15829205;28;20035;-52
2024/01/22 07:56:12;;;;;;;0.00;0.00;;;;;;;6.33;65.63;100479.28;15869733;28;20047;-51
2024/01/22 08:03:47;;;;;;;0.73;0.73;;;;;;;6.41;67.10;100488.19;15838969;28;20044;-50
2024/01/22 08:11:21;;;;;;;0.45;0.28;;;;;;;6.06;69.22;100494.16;15805417;28;20051;-49
2024/01/22 08:18:56;;;;;;;0.00;0.00;;;;;;;5.84;72.16;100495.09;15806533;28;20489;-49
2024/01/22 08:26:30;;;;;;;0.33;0.33;;;;;;;5.66;74.78;100495.44;15805172;28;20051;-50
2024/01/22 08:34:04;;;;;;;0.00;0.00;;;;;;;5.44;76.87;100472.41;15769443;28;20095;-50
2024/01/22 08:41:39;;;;;;;0.00;0.00;;;;;;;5.22;79.72;100484.78;15784859;28;20511;-47
2024/01/22 08:49:16;;;;;;;0.20;0.20;;;;;;;5.11;82.09;100462.94;15808103;28;20051;-46
2024/01/22 08:56:52;;;;;;;0.00;0.00;;;;;;;5.35;81.74;100461.03;15848342;28;20043;-46
2024/01/22 09:04:32;;;;;;;0.20;0.20;;;;;;;5.42;81.23;100459.28;15848313;28;20090;-47
2024/01/22 09:12:07;;;;;;;0.00;0.00;;;;;;;5.44;81.75;100473.22;15855138;28;20036;-46
2024/01/22 09:19:42;;;;;;;0.00;0.00;;;;;;;5.44;82.49;100467.91;15865669;28;20062;-46
2024/01/22 09:27:16;;;;;;;0.15;0.15;;;;;;;5.61;82.25;100453.41;15864785;28;20494;-50
2024/01/22 09:34:51;;;;;;;0.00;0.00;;;;;;;5.77;82.24;100448.88;15846428;28;20047;-48
2024/01/22 09:42:31;;;;;;;0.00;0.00;;;;;;;5.96;81.03;100450.16;15864596;28;20423;-47
2024/01/22 09:50:10;;;;;;;0.00;0.00;;;;;;;6.17;79.70;100436.06;15814394;28;20044;-52
2024/01/22 09:57:54;;;;;;;0.22;0.22;;;;;;;6.53;77.78;100420.03;15803625;28;20139;-47
2024/01/22 10:05:29;;;;;;;0.00;0.00;;;;;;;6.84;76.43;100412.47;15830497;28;20140;-48
2024/01/22 10:13:07;;;;;;;0.00;0.00;;;;;;;7.08;75.16;100421.84;15813097;28;20044;-48
2024/01/22 10:20:44;;;;;;;0.00;0.00;;;;;;;7.24;73.93;100391.38;15813622;28;20511;-49
2024/01/22 10:28:21;;;;;;;0.00;0.00;;;;;;;7.45;72.44;100393.13;15829328;28;20122;-49
2024/01/22 10:36:14;;;;;;;0.00;0.00;;;;;;;7.60;71.50;100364.44;15876406;28;20516;-50
2024/01/22 10:43:50;;;;;;;0.00;0.00;;;;;;;7.66;71.14;100347.63;15859089;28;20127;-48
2024/01/22 10:51:26;;;;;;;0.00;0.00;;;;;;;7.95;70.25;100345.63;15818331;28;20039;-45
2024/01/22 10:59:15;;;;;;;0.00;0.00;;;;;;;8.22;69.52;100346.50;15870595;28;20039;-50
2024/01/22 11:06:53;;;;;;;0.00;0.00;;;;;;;8.23;69.53;100315.22;15836960;28;20040;-48
2024/01/22 11:14:27;;;;;;;0.00;0.00;;;;;;;8.28;69.39;100334.16;15809979;28;20040;-52
2024/01/22 11:22:07;;;;;;;0.00;0.00;;;;;;;8.36;69.32;100291.16;15811164;28;20040;-48
2024/01/22 11:29:44;;;;;;;0.00;0.00;;;;;;;8.59;68.32;100270.19;15813521;28;20097;-48
2024/01/22 11:37:35;;;;;;;0.00;0.00;;;;;;;8.74;68.15;100298.56;15808376;28;20412;-48
2024/01/22 11:45:12;;;;;;;0.00;0.00;;;;;;;8.79;68.16;100261.28;15822859;28;20047;-48
2024/01/22 11:52:47;;;;;;;0.00;0.00;;;;;;;8.65;68.44;100241.75;15868129;28;20477;-48
2024/01/22 12:00:22;;;;;;;0.10;0.10;;;;;;;8.65;68.60;100241.75;15868068;28;20601;-51
2024/01/22 12:07:57;;;;;;;0.80;0.55;;;;;;;8.78;68.87;100251.63;15818128;28;20051;-48
2024/01/22 12:15:33;;;;;;;0.00;0.00;;;;;;;8.73;69.06;100227.34;15803464;28;20436;-49
2024/01/22 12:23:09;;;;;;;0.00;0.00;;;;;;;8.94;68.59;100229.72;15859594;28;20454;-54
2024/01/22 12:30:43;;;;;;;0.00;0.00;;;;;;;9.11;68.50;100214.00;15863516;28;20043;-49
2024/01/22 12:38:20;;;;;;;0.00;0.00;;;;;;;9.09;68.19;100208.03;15864326;28;20126;-49
2024/01/22 12:46:04;;;;;;;0.00;0.00;;;;;;;9.01;68.14;100190.38;15832106;28;20039;-51
2024/01/22 12:53:42;;;;;;;0.00;0.00;;;;;;;8.83;69.01;100188.41;15783779;28;20066;-49
2024/01/22 13:01:17;;;;;;;0.00;0.00;;;;;;;8.97;68.90;100180.31;15818320;28;20110;-48
2024/01/22 13:08:54;;;;;;;0.00;0.00;;;;;;;9.00;68.62;100170.00;15835975;28;20142;-49
2024/01/22 13:16:28;;;;;;;0.00;0.00;;;;;;;9.06;68.67;100179.84;15797388;28;20044;-47
2024/01/22 13:24:02;;;;;;;0.00;0.00;;;;;;;8.95;69.13;100167.13;15801909;28;20079;-48
2024/01/22 13:31:36;;;;;;;0.00;0.00;;;;;;;9.02;69.18;100151.88;15782681;28;20760;-48
2024/01/22 13:39:11;;;;;;;;;;;;;;;9.10;68.66;100143.59;15802428;28;20097;-50
2024/01/22 13:46:44;;;;;;;0.10;0.10;;;;;;;9.17;68.57;100112.22;15801672;28;19953;-50
2024/01/22 13:54:19;;;;;;;;;;;;;;;9.50;67.89;100111.16;15808920;28;20032;-50
2024/01/22 14:01:52;;;;;;;0.25;0.25;;;;;;;9.28;68.37;100125.94;15860404;28;20437;-49
2024/01/22 14:09:30;;;;;;;0.00;0.00;;;;;;;9.42;68.20;100111.44;15863014;28;20119;-51
2024/01/22 14:17:05;;;;;;;2.75;0.63;;;;;;;9.52;68.01;100114.47;15861081;28;20043;-48
2024/01/22 14:24:40;;;;;;;0.20;0.20;;;;;;;9.35;68.53;100110.66;15845988;28;20079;-53
2024/01/22 14:32:14;;;;;;;0.52;0.52;;;;;;;9.36;68.67;100121.16;15863853;28;20032;-50
2024/01/22 14:39:49;;;;;;;0.00;0.00;;;;;;;9.44;68.98;100110.19;15831668;28;20058;-49
2024/01/22 14:47:23;;;;;;;0.00;0.00;;;;;;;9.46;68.85;100112.63;15832442;28;20050;-51
2024/01/22 14:54:58;;;;;;;0.00;0.00;;;;;;;9.49;68.91;100128.28;15855685;28;20035;-49
2024/01/22 15:02:31;;;;;;;0.03;0.03;;;;;;;9.48;69.25;100125.81;15871370;28;20051;-49
2024/01/22 15:10:09;;;;;;;0.00;0.00;;;;;;;9.73;68.81;100140.03;15855582;28;20038;-48
2024/01/22 15:17:43;;;;;;;0.00;0.00;;;;;;;9.49;70.11;100171.13;15873226;28;20047;-48
2024/01/22 15:25:23;;;;;;;0.28;0.28;;;;;;;9.60;69.38;100158.88;15871439;28;20046;-48
2024/01/22 15:32:57;;;;;;;0.00;0.00;;;;;;;9.33;72.36;100172.50;15868789;28;20404;-51
2024/01/22 15:40:32;;;;;;;0.00;0.00;;;;;;;9.07;75.14;100186.03;15867898;28;20071;-47
2024/01/22 15:48:06;;;;;;;0.00;0.00;;;;;;;8.77;77.10;100175.06;15814989;28;20123;-49
2024/01/22 15:55:42;;;;;;;0.15;0.13;;;;;;;8.67;77.08;100203.09;15784746;28;20047;-47
2024/01/22 16:03:16;;;;;;;0.00;0.00;;;;;;;8.69;76.39;100206.34;15822077;28;20143;-52
2024/01/22 16:10:54;;;;;;;0.00;0.00;;;;;;;8.85;75.79;100215.75;15866098;28;20035;-53
2024/01/22 16:18:27;;;;;;;0.00;0.00;;;;;;;8.84;75.58;100208.75;15865849;28;20052;-54
2024/01/22 16:26:03;;;;;;;0.00;0.00;;;;;;;8.59;76.58;100211.31;15866089;28;20527;-57
2024/01/22 16:33:37;;;;;;;7.30;1.20;;;;;;;8.88;74.96;100204.63;15864800;28;20042;-53
2024/01/22 16:41:19;;;;;;;0.00;0.00;;;;;;;8.78;74.91;100223.00;15846987;28;20476;-55
2024/01/22 16:48:53;;;;;;;0.00;0.00;;;;;;;8.57;74.97;100191.16;15824010;28;20488;-54
2024/01/22 16:56:28;;;;;;;0.00;0.00;;;;;;;8.82;74.68;100255.53;15801498;28;20102;-55
2024/01/22 17:04:02;;;;;;;0.00;0.00;;;;;;;8.69;74.38;100264.41;15818816;28;20500;-54
2024/01/22 17:11:40;;;;;;;0.00;0.00;;;;;;;8.89;72.50;100272.38;15784363;28;20038;-55
2024/01/22 17:19:15;;;;;;;0.00;0.00;;;;;;;8.58;73.07;100303.31;15799070;28;20036;-55
2024/01/22 17:26:49;;;;;;;;;;;;;;;8.45;72.39;100334.59;15782101;28;20566;-57
2024/01/22 17:34:23;;;;;;;0.08;0.08;;;;;;;8.52;70.68;100338.91;15800453;28;20001;-51
2024/01/22 17:41:58;;;;;;;;;;;;;;;8.55;69.61;100359.91;15845002;28;20031;-57
2024/01/22 17:49:36;;;;;;;0.00;0.00;;;;;;;8.48;69.13;100385.81;15801420;28;19920;-54
2024/01/22 17:57:11;;;;;;;0.00;0.00;;;;;;;8.20;70.17;100418.03;15800630;28;20090;-54
2024/01/22 18:04:45;;;;;;;0.00;0.00;;;;;;;8.15;70.13;100418.66;15829765;28;20047;-56
2024/01/22 18:12:21;;;;;;;0.00;0.00;;;;;;;8.04;70.22;100421.09;15844900;28;20035;-53
2024/01/22 18:19:55;;;;;;;0.00;0.00;;;;;;;7.89;70.76;100440.78;15869119;28;20081;-55
2024/01/22 18:27:29;;;;;;;0.00;0.00;;;;;;;8.00;71.54;100468.78;15849677;28;20063;-53
2024/01/22 18:35:04;;;;;;;0.00;0.00;;;;;;;7.16;78.09;100483.09;15795586;28;20139;-55
2024/01/22 18:42:39;;;;;;;0.00;0.00;;;;;;;7.50;78.74;100464.63;15810249;28;20123;-54
2024/01/22 18:50:13;;;;;;;0.00;0.00;;;;;;;7.51;75.54;100493.84;15842197;28;20047;-53
2024/01/22 18:57:51;;;;;;;0.00;0.00;;;;;;;7.09;76.41;100508.94;15871403;28;20040;-55
2024/01/22 19:05:24;;;;;;;1.02;0.32;;;;;;;7.20;75.95;100514.75;15865324;28;20541;-50
2024/01/22 19:12:59;;;;;;;;;;;;;;;6.98;75.37;100506.78;15813306;22;20052;-51
2024/01/22 19:20:32;;;;;;;0.70;0.70;;;;;;;6.99;74.86;100526.28;15817419;28;19982;-51
2024/01/22 19:28:07;;;;;;;;;;;;;;;6.82;74.86;100537.22;15864069;28;20044;-51
2024/01/22 19:35:42;;;;;;;0.00;0.00;;;;;;;7.04;73.73;100543.38;15865468;28;19984;-52
2024/01/22 19:43:17;;;;;;;4.07;2.17;;;;;;;6.95;73.03;100560.53;15847712;28;20078;-48
2024/01/22 19:50:54;;;;;;;0.00;0.00;;;;;;;7.07;71.97;100579.53;15864338;28;20490;-48
2024/01/22 19:58:29;;;;;;;0.25;0.25;;;;;;;6.92;73.53;100590.25;15864647;28;20101;-50
2024/01/22 20:06:03;;;;;;;0.00;0.00;;;;;;;6.88;73.29;100618.34;15864441;28;20588;-50
2024/01/22 20:13:37;;;;;;;0.00;0.00;;;;;;;6.96;73.73;100639.56;15845085;28;20039;-52
2024/01/22 20:21:13;;;;;;;0.00;0.00;;;;;;;6.87;73.84;100678.06;15844844;28;20070;-50
2024/01/22 20:28:49;;;;;;;0.00;0.00;;;;;;;6.28;77.25;100676.25;15844751;28;20043;-51
2024/01/22 20:36:23;;;;;;;0.00;0.00;;;;;;;5.97;80.08;100683.56;15862955;28;20047;-50
2024/01/22 20:43:57;;;;;;;;;;;;;;;5.96;80.54;100696.06;15863529;28;20040;-47
2024/01/22 20:51:31;;;;;;;0.00;0.00;;;;;;;5.87;81.31;100703.31;15863870;28;19946;-51
2024/01/22 20:59:05;;;;;;;;;;;;;;;6.21;80.30;100704.69;15846753;28;20437;-53
2024/01/22 21:06:39;;;;;;;0.43;0.43;;;;;;;6.00;80.10;100692.03;15863343;28;19923;-49
2024/01/22 21:14:15;;;;;;;0.00;0.00;;;;;;;6.14;78.64;100693.91;15861214;28;20140;-51
2024/01/22 21:21:50;;;;;;;0.00;0.00;;;;;;;5.93;78.63;100698.28;15842322;28;20030;-48
2024/01/22 21:29:25;;;;;;;0.00;0.00;;;;;;;5.89;77.86;100711.09;15842286;28;20036;-51
2024/01/22 21:36:59;;;;;;;0.00;0.00;;;;;;;5.69;78.55;100718.78;15824492;28;20047;-51
2024/01/22 21:44:35;;;;;;;0.00;0.00;;;;;;;5.86;77.14;100732.78;15859079;28;20032;-50
2024/01/22 21:52:08;;;;;;;0.00;0.00;;;;;;;5.66;77.79;100731.63;15857603;28;20032;-49
2024/01/22 21:59:47;;;;;;;0.00;0.00;;;;;;;5.50;77.95;100728.06;15855383;28;20046;-50
2024/01/22 22:07:21;;;;;;;0.00;0.00;;;;;;;5.56;76.87;100734.53;15872636;28;20459;-47
2024/01/22 22:14:57;;;;;;;0.00;0.00;;;;;;;5.83;75.88;100739.31;15844795;28;20185;-49
2024/01/22 22:22:31;;;;;;;0.00;0.00;;;;;;;5.88;76.05;100746.75;15806355;28;20036;-49
2024/01/22 22:30:09;;;;;;;0.00;0.00;;;;;;;5.72;76.09;100753.03;15805781;28;20036;-50
2024/01/22 22:37:42;;;;;;;0.00;0.00;;;;;;;5.86;75.79;100738.94;15788368;28;20518;-50
2024/01/22 22:45:17;;;;;;;0.00;0.00;;;;;;;5.97;74.66;100744.84;15761712;28;20037;-51
2024/01/22 22:52:51;;;;;;;0.10;0.10;;;;;;;5.65;75.12;100735.28;15804149;28;20040;-51
2024/01/22 23:00:25;;;;;;;;;;;;;;;5.56;76.13;100761.16;15804748;28;20044;-50
2024/01/22 23:07:59;;;;;;;0.00;0.00;;;;;;;5.93;74.58;100760.41;15791078;28;19928;-54
2024/01/22 23:15:35;;;;;;;0.00;0.00;;;;;;;5.83;74.41;100760.59;15804078;28;20044;-46
2024/01/22 23:23:10;;;;;;;0.00;0.00;;;;;;;5.99;73.97;100756.19;15804013;28;20660;-50
2024/01/22 23:30:45;;;;;;;0.10;0.10;;;;;;;6.13;73.48;100766.03;15803333;28;20381;-50
2024/01/22 23:38:19;;;;;;;0.00;0.00;;;;;;;5.69;74.55;100765.84;15802363;28;20399;-49
2024/01/22 23:45:54;;;;;;;0.00;0.00;;;;;;;5.88;73.80;100754.75;15801937;28;20098;-49
2024/01/22 23:53:28;;;;;;;0.00;0.00;;;;;;;5.84;74.47;100756.09;15801626;28;20052;-47
